Time;durP1;ratioP1;P1;durP2;ratioP2;P2;SDS_P1;SDS_P2;PMS_P1;PMS_P2;Temp;Humidity;BMP_temperature;BMP_pressure;BME280_temperature;BME280_humidity;BME280_pressure;Samples;Min_cycle;Max_cycle;Signal;HPM_P1;HPM_P2
2023/05/02 05:06:12;;;;;;;12.20;6.43;;;15.70;99.20;;;;;;4587421;19;20119;-21
2023/05/02 05:07:44;;;;;;;11.50;6.40;;;15.80;99.10;;;;;;4589612;19;20017;-20
2023/05/02 05:09:15;;;;;;;12.00;6.05;;;15.80;99.00;;;;;;4591203;19;20476;-20
2023/05/02 05:10:48;;;;;;;9.23;6.23;;;15.80;98.90;;;;;;4593607;19;20011;-19
2023/05/02 05:12:19;;;;;;;9.10;6.32;;;15.80;98.80;;;;;;4592359;19;20019;-20
2023/05/02 05:13:50;;;;;;;10.63;6.18;;;15.90;99.00;;;;;;4592385;19;20515;-20
2023/05/02 05:15:24;;;;;;;12.73;6.40;;;15.90;98.60;;;;;;4591246;19;20411;-20
2023/05/02 05:16:57;;;;;;;10.07;5.70;;;15.90;98.40;;;;;;4590318;19;20022;-20
2023/05/02 05:18:28;;;;;;;9.30;5.43;;;15.90;98.30;;;;;;4590312;19;20342;-19
2023/05/02 05:20:00;;;;;;;11.47;5.20;;;15.90;98.20;;;;;;4590719;19;20474;-19
2023/05/02 05:21:31;;;;;;;11.45;5.75;;;15.90;98.50;;;;;;4593443;19;20018;-20
2023/05/02 05:23:03;;;;;;;;;;;16.00;98.60;;;;;;4593118;19;20031;-21
2023/05/02 05:24:34;;;;;;;9.57;5.70;;;16.00;98.70;;;;;;4592359;19;19915;-20
2023/05/02 05:26:11;;;;;;;10.90;5.63;;;16.00;98.90;;;;;;4592252;19;20114;-23
2023/05/02 05:27:43;;;;;;;8.53;5.10;;;16.00;98.90;;;;;;4591982;19;20105;-20
2023/05/02 05:29:15;;;;;;;9.83;5.23;;;16.00;98.90;;;;;;4590410;19;20002;-20
2023/05/02 05:30:46;;;;;;;8.57;5.90;;;16.00;99.00;;;;;;4591014;19;20014;-20
2023/05/02 05:32:17;;;;;;;9.05;6.38;;;16.00;98.90;;;;;;4590877;19;20345;-19
2023/05/02 05:33:48;;;;;;;9.63;6.25;;;16.00;99.00;;;;;;4589651;19;20085;-20
2023/05/02 05:37:13;;;;;;;10.87;5.90;;;16.00;98.80;;;;;;4590531;19;20398;-20
2023/05/02 05:38:45;;;;;;;12.52;6.13;;;16.00;99.00;;;;;;4589214;19;20509;-19
2023/05/02 05:40:16;;;;;;;;;;;16.10;99.20;;;;;;4594930;19;20023;-19
2023/05/02 05:41:47;;;;;;;10.83;6.70;;;16.00;99.00;;;;;;4592499;19;19938;-19
2023/05/02 05:43:18;;;;;;;9.05;5.88;;;16.10;98.80;;;;;;4592036;19;20015;-20
2023/05/02 05:44:50;;;;;;;11.75;6.10;;;16.10;98.80;;;;;;4591198;19;20082;-20
2023/05/02 05:46:21;;;;;;;9.23;5.43;;;16.10;99.10;;;;;;4591886;19;20013;-20
2023/05/02 05:47:54;;;;;;;8.37;5.77;;;16.10;99.10;;;;;;4592248;19;20038;-19
2023/05/02 05:49:27;;;;;;;9.20;5.88;;;16.10;99.20;;;;;;4592915;19;20467;-19
2023/05/02 05:51:05;;;;;;;8.90;6.43;;;16.10;99.10;;;;;;4590887;19;20025;-21
2023/05/02 05:52:36;;;;;;;9.13;5.78;;;16.10;99.10;;;;;;4591596;19;20070;-20
2023/05/02 05:54:08;;;;;;;;;;;16.20;99.30;;;;;;4592851;19;20021;-21
2023/05/02 05:55:39;;;;;;;10.17;6.13;;;16.10;99.50;;;;;;4592459;19;19921;-19
2023/05/02 05:57:12;;;;;;;10.05;5.47;;;16.20;99.60;;;;;;4590430;19;20484;-21
2023/05/02 05:58:44;;;;;;;10.13;6.28;;;16.10;99.60;;;;;;4591598;19;20010;-20
2023/05/02 06:00:16;;;;;;;12.32;6.82;;;16.10;99.40;;;;;;4592295;19;20457;-20
2023/05/02 06:01:50;;;;;;;11.30;6.30;;;16.10;99.50;;;;;;4589346;19;20014;-20
2023/05/02 06:03:22;;;;;;;9.68;6.15;;;16.10;99.40;;;;;;4591658;19;20011;-19
2023/05/02 06:04:53;;;;;;;9.45;6.45;;;16.10;99.40;;;;;;4591178;19;20006;-20
2023/05/02 06:06:26;;;;;;;;;;;16.10;99.60;;;;;;4592947;19;20038;-19
2023/05/02 06:07:57;;;;;;;11.50;6.47;;;16.20;99.30;;;;;;4591479;19;19929;-20
2023/05/02 06:09:30;;;;;;;10.80;6.60;;;16.20;99.30;;;;;;4590656;19;20046;-20
2023/05/02 06:11:08;;;;;;;8.90;6.37;;;16.20;99.40;;;;;;4590311;19;20031;-21
2023/05/02 06:12:40;;;;;;;10.88;6.38;;;16.20;99.30;;;;;;4590895;19;20475;-21
2023/05/02 06:14:11;;;;;;;11.20;6.97;;;16.30;99.20;;;;;;4590844;19;20512;-20
2023/05/02 06:15:42;;;;;;;10.05;5.70;;;16.30;99.10;;;;;;4591268;19;20010;-19
2023/05/02 06:17:14;;;;;;;12.65;6.45;;;16.30;99.10;;;;;;4591691;19;20048;-19
2023/05/02 06:18:46;;;;;;;10.18;6.60;;;16.30;99.20;;;;;;4590956;19;20007;-20
2023/05/02 06:20:17;;;;;;;10.98;6.65;;;16.40;99.30;;;;;;4590228;19;20066;-20
2023/05/02 06:21:50;;;;;;;11.25;6.68;;;16.40;99.30;;;;;;4589989;19;20349;-20
2023/05/02 06:23:22;;;;;;;9.77;6.82;;;16.40;99.40;;;;;;4590242;19;20456;-19
2023/05/02 06:24:55;;;;;;;10.30;6.57;;;16.40;99.40;;;;;;4588200;19;20086;-20
2023/05/02 06:26:27;;;;;;;13.43;7.28;;;16.40;99.50;;;;;;4590578;19;20014;-20
2023/05/02 06:27:58;;;;;;;12.95;7.10;;;16.40;99.60;;;;;;4591108;19;20025;-20
2023/05/02 06:29:30;;;;;;;11.55;7.50;;;16.40;99.80;;;;;;4591221;19;20015;-20
2023/05/02 06:31:04;;;;;;;11.05;7.25;;;16.40;99.70;;;;;;4591091;19;20481;-20
2023/05/02 06:32:35;;;;;;;11.52;8.02;;;16.40;99.80;;;;;;4589580;19;20044;-20
2023/05/02 06:34:06;;;;;;;11.00;7.13;;;16.40;99.80;;;;;;4588629;19;20007;-19
2023/05/02 06:35:39;;;;;;;14.52;8.00;;;16.40;99.90;;;;;;4591976;19;20464;-20
2023/05/02 06:37:10;;;;;;;11.65;7.90;;;16.40;99.90;;;;;;4588183;19;20477;-19
2023/05/02 06:38:41;;;;;;;12.10;7.85;;;16.40;99.90;;;;;;4589849;19;20003;-21
2023/05/02 06:40:13;;;;;;;15.25;8.35;;;16.40;99.90;;;;;;4589597;19;20031;-20
2023/05/02 06:41:44;;;;;;;;;;;16.40;99.90;;;;;;4591772;19;20002;-20
2023/05/02 06:43:16;;;;;;;10.70;7.13;;;16.50;99.90;;;;;;4589902;19;19919;-19
2023/05/02 06:44:48;;;;;;;14.32;8.15;;;16.40;99.90;;;;;;4589509;19;20393;-20
2023/05/02 06:46:19;;;;;;;14.38;7.18;;;16.50;99.90;;;;;;4590271;19;20003;-20
2023/05/02 06:47:50;;;;;;;13.40;8.02;;;16.50;99.90;;;;;;4591393;19;20002;-20
2023/05/02 06:49:22;;;;;;;11.40;7.38;;;16.50;99.90;;;;;;4590341;19;20021;-20
2023/05/02 06:50:54;;;;;;;13.35;7.43;;;16.50;99.90;;;;;;4589741;19;20014;-19
2023/05/02 06:52:25;;;;;;;23.15;9.90;;;16.50;99.90;;;;;;4589240;19;20500;-20
2023/05/02 06:53:57;;;;;;;;;;;16.50;99.90;;;;;;4590955;19;20015;-20
2023/05/02 06:55:28;;;;;;;12.20;7.18;;;16.50;99.90;;;;;;4590630;19;19974;-20
2023/05/02 06:56:59;;;;;;;11.50;7.43;;;16.50;99.90;;;;;;4589848;19;20480;-21
2023/05/02 06:58:31;;;;;;;12.77;8.32;;;16.50;99.90;;;;;;4589833;19;20018;-21
2023/05/02 07:00:03;;;;;;;13.20;7.90;;;16.50;99.90;;;;;;4589515;19;20011;-20
2023/05/02 07:01:36;;;;;;;11.63;8.02;;;16.50;99.90;;;;;;4590187;19;20021;-20
2023/05/02 07:03:09;;;;;;;13.07;7.60;;;16.60;99.90;;;;;;4590830;19;20463;-21
2023/05/02 07:04:40;;;;;;;11.23;7.60;;;16.50;99.90;;;;;;4589455;19;20007;-20
2023/05/02 07:06:12;;;;;;;11.73;8.05;;;16.60;99.90;;;;;;4590180;19;20007;-20
2023/05/02 07:07:44;;;;;;;11.50;7.85;;;16.60;99.90;;;;;;4589377;19;20007;-21
2023/05/02 07:09:16;;;;;;;12.30;8.77;;;16.60;99.90;;;;;;4589766;19;20006;-20
2023/05/02 07:10:47;;;;;;;11.63;8.45;;;16.70;99.90;;;;;;4591315;19;20026;-20
2023/05/02 07:12:19;;;;;;;12.05;8.13;;;16.70;99.90;;;;;;4590323;19;20014;-21
2023/05/02 07:13:52;;;;;;;12.00;8.50;;;16.70;99.90;;;;;;4588897;19;20010;-20
2023/05/02 07:15:23;;;;;;;13.10;8.15;;;16.80;99.90;;;;;;4590264;19;20078;-20
2023/05/02 07:16:55;;;;;;;11.23;7.80;;;16.80;99.90;;;;;;4590461;19;20397;-20
2023/05/02 07:18:26;;;;;;;15.20;8.80;;;16.80;99.90;;;;;;4590179;19;20006;-20
2023/05/02 07:19:57;;;;;;;14.02;9.38;;;16.80;99.80;;;;;;4590343;19;20006;-20
2023/05/02 07:21:28;;;;;;;15.68;8.90;;;16.90;99.90;;;;;;4589759;19;20009;-20
2023/05/02 07:23:00;;;;;;;14.13;9.93;;;16.90;99.90;;;;;;4589234;19;20161;-19
2023/05/02 07:24:31;;;;;;;15.07;11.07;;;16.90;99.90;;;;;;4586471;19;20014;-20
2023/05/02 08:25:21;;;;;;;10.68;7.20;;;16.80;99.90;;;;;;4586483;19;20058;-19
2023/05/02 08:26:53;;;;;;;13.00;7.57;;;16.80;99.90;;;;;;4591820;19;20033;-21
2023/05/02 08:28:24;;;;;;;12.80;8.20;;;16.80;99.90;;;;;;4592646;19;20026;-20
2023/05/02 08:29:55;;;;;;;10.38;7.55;;;16.70;99.90;;;;;;4591360;19;20019;-20
2023/05/02 08:31:27;;;;;;;11.88;7.80;;;16.70;99.90;;;;;;4591473;19;20017;-20
2023/05/02 08:32:58;;;;;;;12.45;8.63;;;16.70;99.90;;;;;;4593801;19;20010;-18
2023/05/02 08:34:29;;;;;;;10.07;7.45;;;16.70;99.90;;;;;;4592089;19;20041;-20
2023/05/02 08:36:01;;;;;;;11.70;7.47;;;16.70;99.90;;;;;;4592316;19;20103;-20
2023/05/02 08:37:32;;;;;;;12.32;7.60;;;16.70;99.90;;;;;;4591969;19;20015;-20
2023/05/02 08:39:03;;;;;;;11.90;7.55;;;16.70;99.90;;;;;;4592294;19;20014;-20
2023/05/02 08:40:36;;;;;;;11.75;8.57;;;16.70;99.90;;;;;;4592118;19;20492;-20
2023/05/02 08:42:07;;;;;;;12.65;7.63;;;16.70;99.90;;;;;;4593429;19;20011;-21
2023/05/02 08:43:39;;;;;;;;;;;16.70;99.90;;;;;;4590579;19;20034;-20
2023/05/02 08:45:11;;;;;;;12.57;8.77;;;16.70;99.90;;;;;;4589667;19;19940;-20
2023/05/02 08:46:42;;;;;;;11.45;7.55;;;16.70;99.90;;;;;;4593102;19;20070;-21
2023/05/02 08:48:15;;;;;;;13.73;7.47;;;16.70;99.90;;;;;;4592327;19;20081;-19
2023/05/02 08:49:47;;;;;;;14.30;7.15;;;16.70;99.90;;;;;;4591850;19;20031;-20
2023/05/02 08:51:18;;;;;;;10.48;7.00;;;16.60;99.90;;;;;;4592260;19;20007;-20
2023/05/02 08:52:49;;;;;;;11.82;8.05;;;16.70;99.90;;;;;;4592788;19;20010;-19
2023/05/02 08:54:21;;;;;;;15.70;8.70;;;16.70;99.90;;;;;;4591188;19;20066;-19
2023/05/02 08:55:52;;;;;;;12.88;7.88;;;16.70;99.90;;;;;;4592582;19;20026;-19
2023/05/02 08:57:41;;;;;;;11.75;7.80;;;16.70;99.90;;;;;;4590256;19;20035;-22
2023/05/02 08:59:13;;;;;;;11.50;7.75;;;16.70;99.90;;;;;;4592289;19;20414;-20
2023/05/02 09:00:44;;;;;;;13.85;7.93;;;16.70;99.90;;;;;;4592530;19;20010;-21
2023/05/02 09:02:51;;;;;;;8.93;6.47;;;16.70;99.90;;;;;;4591338;19;20018;-19
2023/05/02 09:04:23;;;;;;;10.75;7.25;;;16.70;99.90;;;;;;4591794;19;20026;-19
2023/05/02 09:06:18;;;;;;;9.68;6.55;;;16.70;99.90;;;;;;4589440;19;20018;-20
2023/05/02 09:07:50;;;;;;;10.18;7.05;;;16.80;99.90;;;;;;4591591;19;20039;-20
2023/05/02 09:09:22;;;;;;;9.13;6.80;;;16.80;99.90;;;;;;4589256;19;20488;-20
2023/05/02 09:10:53;;;;;;;9.80;6.75;;;16.80;99.90;;;;;;4590399;19;20017;-20
2023/05/02 09:12:25;;;;;;;8.15;5.90;;;16.80;99.90;;;;;;4591052;19;20022;-20
2023/05/02 09:14:02;;;;;;;8.27;6.25;;;16.80;99.90;;;;;;4591619;19;20010;-20
2023/05/02 09:15:33;;;;;;;9.27;6.28;;;16.80;99.90;;;;;;4588547;19;20029;-20
2023/05/02 09:17:05;;;;;;;7.43;5.75;;;16.80;99.90;;;;;;4590399;19;20015;-19
2023/05/02 09:18:37;;;;;;;10.55;5.80;;;16.80;99.90;;;;;;4591042;19;20026;-20
2023/05/02 09:20:12;;;;;;;9.88;5.57;;;16.80;99.90;;;;;;4591372;19;20002;-20
2023/05/02 09:21:43;;;;;;;8.88;5.70;;;16.80;99.90;;;;;;4590532;19;20014;-21
2023/05/02 09:23:15;;;;;;;8.30;4.82;;;16.80;99.90;;;;;;4591852;19;20011;-20
2023/05/02 09:24:53;;;;;;;7.88;5.18;;;16.80;99.90;;;;;;4590535;19;20018;-20
2023/05/02 09:26:32;;;;;;;8.93;4.93;;;16.90;99.90;;;;;;4591338;19;20023;-20
2023/05/02 09:28:03;;;;;;;7.70;5.82;;;16.90;99.90;;;;;;4592779;19;20015;-19
2023/05/02 09:29:36;;;;;;;10.63;5.43;;;16.90;99.90;;;;;;4592229;19;20476;-20
2023/05/02 09:31:15;;;;;;;9.88;5.55;;;16.90;99.90;;;;;;4592212;19;20105;-20
2023/05/02 09:32:49;;;;;;;6.85;5.03;;;16.90;99.90;;;;;;4589291;19;20103;-19
2023/05/02 09:34:21;;;;;;;7.13;4.60;;;17.00;99.90;;;;;;4589963;19;20524;-20
2023/05/02 09:35:53;;;;;;;11.25;5.28;;;17.00;99.90;;;;;;4591434;19;20018;-20
2023/05/02 09:37:34;;;;;;;7.00;4.82;;;17.00;99.90;;;;;;4591609;19;20021;-20
2023/05/02 09:39:15;;;;;;;6.90;4.95;;;17.00;99.90;;;;;;4589515;19;20006;-20
2023/05/02 09:40:54;;;;;;;9.02;4.88;;;17.00;99.90;;;;;;4589482;19;20014;-19
2023/05/02 09:42:30;;;;;;;7.22;4.40;;;17.00;99.90;;;;;;4589545;19;20006;-20
2023/05/02 09:44:01;;;;;;;7.45;4.63;;;17.10;99.90;;;;;;4588858;19;20018;-20
2023/05/02 09:45:32;;;;;;;8.90;4.40;;;17.10;99.90;;;;;;4588736;19;20018;-19
2023/05/02 09:47:05;;;;;;;;;;;17.20;99.90;;;;;;4591207;19;20010;-20
2023/05/02 09:48:53;;;;;;;7.75;4.88;;;17.20;99.90;;;;;;4590238;19;19916;-20
2023/05/02 09:50:35;;;;;;;6.72;4.80;;;17.20;99.90;;;;;;4589665;19;20011;-20
2023/05/02 09:52:17;;;;;;;7.80;4.82;;;17.20;99.90;;;;;;4589863;19;20007;-19
2023/05/02 09:53:48;;;;;;;8.75;5.25;;;17.20;99.90;;;;;;4589205;19;20011;-20
2023/05/02 09:55:21;;;;;;;6.30;4.97;;;17.20;99.90;;;;;;4588865;19;20018;-20
2023/05/02 09:57:10;;;;;;;9.05;5.80;;;17.20;99.90;;;;;;4589456;19;20369;-20
2023/05/02 09:58:42;;;;;;;7.10;4.30;;;17.20;99.90;;;;;;4590010;19;20014;-21
2023/05/02 10:00:15;;;;;;;8.70;5.05;;;17.30;99.90;;;;;;4589508;19;20010;-19
2023/05/02 10:01:58;;;;;;;8.45;4.90;;;17.30;99.90;;;;;;4589886;19;20010;-20
2023/05/02 10:03:30;;;;;;;6.82;3.92;;;17.30;99.90;;;;;;4589310;19;20422;-20
2023/05/02 10:05:03;;;;;;;5.88;3.80;;;17.40;99.90;;;;;;4587816;19;20021;-20
2023/05/02 10:06:34;;;;;;;5.95;4.15;;;17.40;99.90;;;;;;4588717;19;20028;-20
2023/05/02 10:08:06;;;;;;;7.38;3.85;;;17.40;99.80;;;;;;4588622;19;20337;-20
2023/05/02 10:09:41;;;;;;;6.18;3.33;;;17.40;99.90;;;;;;4585342;19;20615;-19
2023/05/02 10:11:12;;;;;;;5.70;3.60;;;17.50;99.60;;;;;;4587339;19;20105;-20
2023/05/02 10:12:43;;;;;;;5.72;3.47;;;17.50;99.60;;;;;;4587360;19;20361;-20
2023/05/02 10:14:15;;;;;;;8.40;4.32;;;17.50;99.50;;;;;;4587739;19;20074;-20
2023/05/02 10:15:47;;;;;;;;;;;17.50;99.90;;;;;;4590547;19;20598;-20
2023/05/02 10:17:22;;;;;;;6.88;3.92;;;17.50;99.80;;;;;;4589494;19;20246;-21
2023/05/02 10:19:05;;;;;;;5.03;3.42;;;17.60;99.70;;;;;;4589352;19;20026;-19
2023/05/02 10:20:36;;;;;;;5.97;3.47;;;17.60;99.70;;;;;;4589350;19;20516;-20
2023/05/02 10:22:08;;;;;;;5.60;3.55;;;17.60;99.60;;;;;;4589518;19;20029;-19
2023/05/02 10:23:43;;;;;;;5.97;3.40;;;17.60;99.70;;;;;;4589063;19;20010;-21
2023/05/02 10:25:14;;;;;;;4.75;3.10;;;17.60;99.90;;;;;;4588284;19;20039;-19
2023/05/02 10:26:46;;;;;;;6.10;2.90;;;17.60;99.90;;;;;;4587170;19;20014;-20
2023/05/02 10:28:18;;;;;;;6.45;2.95;;;17.60;99.90;;;;;;4588989;19;20022;-20
2023/05/02 10:29:50;;;;;;;4.38;2.80;;;17.70;99.40;;;;;;4588259;19;20376;-20
2023/05/02 10:31:21;;;;;;;4.60;3.28;;;17.70;99.50;;;;;;4587712;19;20006;-20
2023/05/02 10:32:53;;;;;;;4.82;2.70;;;17.70;99.00;;;;;;4589668;19;20013;-20
2023/05/02 10:34:24;;;;;;;5.43;2.47;;;17.60;99.10;;;;;;4589999;19;20026;-20
2023/05/02 10:35:55;;;;;;;4.70;2.83;;;17.50;99.90;;;;;;4589426;19;20093;-20
2023/05/02 10:37:26;;;;;;;5.45;2.83;;;17.60;99.90;;;;;;4589971;19;20025;-20
2023/05/02 10:38:58;;;;;;;4.15;2.58;;;17.60;99.00;;;;;;4590091;19;20528;-19
2023/05/02 10:40:29;;;;;;;4.28;2.20;;;17.60;99.20;;;;;;4590322;19;20015;-19
2023/05/02 10:42:03;;;;;;;;;;;17.70;99.20;;;;;;4590407;19;20102;-20
2023/05/02 10:43:36;;;;;;;5.07;2.83;;;17.60;99.30;;;;;;4589257;19;19952;-20
2023/05/02 10:45:28;;;;;;;4.25;2.42;;;17.60;99.30;;;;;;4586952;19;20018;-20
2023/05/02 10:47:00;;;;;;;6.00;2.97;;;17.60;99.40;;;;;;4587920;19;20014;-20
2023/05/02 10:48:31;;;;;;;3.88;2.90;;;17.60;98.90;;;;;;4590884;19;20034;-20
2023/05/02 10:50:04;;;;;;;4.05;2.28;;;17.60;99.70;;;;;;4590049;19;20011;-20
2023/05/02 10:51:37;;;;;;;5.47;2.75;;;17.60;99.50;;;;;;4590754;19;20467;-20
2023/05/02 10:53:43;;;;;;;5.07;2.60;;;17.80;99.90;;;;;;4588889;19;20014;-19
2023/05/02 10:55:21;;;;;;;4.20;2.40;;;17.90;99.50;;;;;;4588917;19;20085;-19
2023/05/02 10:57:04;;;;;;;5.40;2.47;;;17.90;98.70;;;;;;4587865;19;20100;-19
2023/05/02 10:58:36;;;;;;;4.03;2.78;;;17.90;98.90;;;;;;4588700;19;20017;-20
2023/05/02 11:00:20;;;;;;;4.47;2.70;;;17.90;98.70;;;;;;4588267;19;20100;-21
2023/05/02 11:01:51;;;;;;;4.82;2.72;;;17.90;99.30;;;;;;4588127;19;20013;-19
2023/05/02 11:03:55;;;;;;;3.60;2.00;;;17.80;98.50;;;;;;4587384;19;20010;-20
2023/05/02 11:05:27;;;;;;;4.35;2.15;;;17.70;98.70;;;;;;4587817;19;20031;-20
2023/05/02 11:06:58;;;;;;;4.72;2.28;;;17.70;99.00;;;;;;4588155;19;20021;-20
2023/05/02 11:08:29;;;;;;;3.85;2.35;;;17.80;98.50;;;;;;4588453;19;20038;-19
2023/05/02 11:10:16;;;;;;;4.25;1.92;;;17.80;98.00;;;;;;4587400;19;20021;-20
2023/05/02 11:11:51;;;;;;;5.13;2.38;;;17.70;97.80;;;;;;4587611;19;20341;-20
2023/05/02 11:13:47;;;;;;;4.20;2.42;;;17.70;97.30;;;;;;4587351;19;20015;-20
2023/05/02 11:15:27;;;;;;;4.10;2.63;;;17.70;97.70;;;;;;4589978;19;20014;-20
2023/05/02 11:17:00;;;;;;;3.55;2.08;;;17.70;97.40;;;;;;4588990;19;20070;-20
2023/05/02 11:18:58;;;;;;;3.42;1.90;;;17.60;96.80;;;;;;4589917;19;20629;-20
2023/05/02 11:20:31;;;;;;;5.07;1.90;;;17.60;97.60;;;;;;4588556;19;20068;-20
2023/05/02 11:22:17;;;;;;;3.72;2.25;;;17.70;96.70;;;;;;4589551;19;20017;-20
2023/05/02 11:23:49;;;;;;;7.38;2.70;;;17.60;96.80;;;;;;4587891;19;20042;-20
2023/05/02 11:25:36;;;;;;;5.95;2.35;;;17.60;96.90;;;;;;4589532;19;20011;-20
2023/05/02 11:27:30;;;;;;;6.13;2.65;;;17.50;96.90;;;;;;4589908;19;20014;-21
2023/05/02 11:29:02;;;;;;;4.43;2.50;;;17.50;97.00;;;;;;4590201;19;20015;-20
2023/05/02 11:30:38;;;;;;;6.10;2.40;;;17.50;96.70;;;;;;4589793;19;20002;-20
2023/05/02 11:32:10;;;;;;;4.63;2.60;;;17.50;97.00;;;;;;4589859;19;20003;-19
2023/05/02 11:33:42;;;;;;;3.75;2.30;;;17.60;98.30;;;;;;4589779;19;20021;-19
2023/05/02 11:35:17;;;;;;;3.63;2.38;;;17.70;97.40;;;;;;4588234;19;20006;-21
2023/05/02 11:36:48;;;;;;;4.28;2.30;;;17.80;96.90;;;;;;4587400;19;20002;-20
2023/05/02 11:38:21;;;;;;;3.72;2.80;;;17.80;95.90;;;;;;4587434;19;20026;-20
2023/05/02 11:39:57;;;;;;;4.25;2.30;;;17.90;95.70;;;;;;4589176;19;20086;-19
2023/05/02 11:41:40;;;;;;;3.53;2.15;;;17.90;96.60;;;;;;4589735;19;20051;-20
2023/05/02 11:43:17;;;;;;;5.00;2.53;;;17.90;96.30;;;;;;4586718;19;20015;-20
2023/05/02 11:44:55;;;;;;;4.32;2.22;;;17.90;96.20;;;;;;4588461;19;20007;-20
2023/05/02 11:46:26;;;;;;;5.05;2.55;;;17.90;96.50;;;;;;4589061;19;20022;-20
2023/05/02 11:47:59;;;;;;;6.95;3.33;;;18.00;96.50;;;;;;4587614;19;20208;-20
2023/05/02 11:49:30;;;;;;;4.50;2.70;;;18.00;98.50;;;;;;4587257;19;20017;-20
2023/05/02 11:51:03;;;;;;;3.90;2.40;;;18.10;96.60;;;;;;4588403;19;20027;-20
2023/05/02 11:52:37;;;;;;;5.47;2.40;;;18.10;96.70;;;;;;4587206;19;20107;-20
2023/05/02 11:54:20;;;;;;;5.20;2.58;;;18.00;96.10;;;;;;4587340;19;20066;-19
2023/05/02 11:55:53;;;;;;;10.63;6.10;;;18.10;98.40;;;;;;4587389;19;20066;-20
2023/05/02 11:57:25;;;;;;;4.78;2.50;;;18.30;99.90;;;;;;4587197;19;20017;-19
2023/05/02 11:59:02;;;;;;;4.60;2.88;;;18.30;97.30;;;;;;4589031;19;20010;-20
2023/05/02 12:00:33;;;;;;;4.57;2.83;;;18.30;97.20;;;;;;4588776;19;20018;-21
2023/05/02 12:02:05;;;;;;;5.55;2.55;;;18.30;96.60;;;;;;4588394;19;20053;-19
2023/05/02 12:03:36;;;;;;;4.65;2.85;;;18.30;97.00;;;;;;4589349;19;20472;-20
2023/05/02 12:05:09;;;;;;;4.50;2.55;;;18.20;96.10;;;;;;4589167;19;20007;-20
2023/05/02 12:06:54;;;;;;;5.35;2.85;;;18.20;95.90;;;;;;4588501;19;20014;-20
2023/05/02 12:08:28;;;;;;;4.57;2.70;;;18.10;96.10;;;;;;4588368;19;20030;-19
2023/05/02 12:10:03;;;;;;;4.50;2.60;;;18.00;96.90;;;;;;4588970;19;20021;-19
2023/05/02 12:11:34;;;;;;;;;;;17.90;96.50;;;;;;4589100;19;20373;-20
2023/05/02 12:13:07;;;;;;;5.47;2.90;;;17.80;96.80;;;;;;4588352;19;19915;-21
2023/05/02 12:14:40;;;;;;;7.07;3.20;;;17.80;96.70;;;;;;4586716;19;20013;-20
2023/05/02 12:16:12;;;;;;;4.28;2.72;;;17.80;97.20;;;;;;4588413;19;20042;-20
2023/05/02 12:17:51;;;;;;;5.13;2.80;;;17.90;96.70;;;;;;4588098;19;20097;-21
2023/05/02 12:19:24;;;;;;;8.07;4.28;;;18.00;97.10;;;;;;4589806;19;20026;-20
2023/05/02 12:20:56;;;;;;;;;;;18.10;97.70;;;;;;4589016;19;20030;-19
2023/05/02 12:22:27;;;;;;;4.07;2.58;;;18.10;97.30;;;;;;4587996;19;19914;-19
2023/05/02 12:23:59;;;;;;;4.93;2.63;;;18.10;96.50;;;;;;4588180;19;20063;-19
2023/05/02 12:25:40;;;;;;;7.40;2.95;;;18.10;98.00;;;;;;4586781;19;20003;-20
2023/05/02 12:27:13;;;;;;;4.32;2.85;;;18.20;97.60;;;;;;4588992;19;20026;-19
2023/05/02 12:28:49;;;;;;;5.13;3.20;;;18.10;96.80;;;;;;4588974;19;20499;-19
2023/05/02 12:30:27;;;;;;;5.57;3.00;;;18.10;96.90;;;;;;4589276;19;20355;-21
2023/05/02 12:31:59;;;;;;;6.80;3.05;;;18.00;97.00;;;;;;4589581;19;19999;-20
2023/05/02 12:33:44;;;;;;;6.70;3.38;;;18.00;97.20;;;;;;4593117;19;20062;-20
2023/05/02 12:35:22;;;;;;;4.10;2.65;;;18.00;97.10;;;;;;4592304;19;20038;-20
2023/05/02 12:36:53;;;;;;;6.25;3.30;;;18.00;97.30;;;;;;4593220;19;20334;-19
2023/05/02 12:38:25;;;;;;;4.93;3.05;;;18.00;97.00;;;;;;4592437;19;20008;-19
2023/05/02 12:39:57;;;;;;;5.07;3.00;;;18.00;97.20;;;;;;4592889;19;20010;-19
2023/05/02 12:41:32;;;;;;;5.45;3.03;;;18.00;97.50;;;;;;4592430;19;20526;-20
2023/05/02 12:43:05;;;;;;;4.25;2.80;;;18.10;98.10;;;;;;4592300;19;20018;-19
2023/05/02 12:44:41;;;;;;;4.20;2.75;;;18.10;97.50;;;;;;4593801;19;20408;-20
2023/05/02 12:46:14;;;;;;;4.18;2.97;;;18.00;97.10;;;;;;4592627;19;20508;-19
2023/05/02 12:47:45;;;;;;;;;;;18.10;97.40;;;;;;4593798;19;20027;-19
2023/05/02 12:49:17;;;;;;;5.30;3.70;;;18.00;97.20;;;;;;4592512;19;20289;-20
2023/05/02 12:50:49;;;;;;;5.10;3.00;;;18.00;97.20;;;;;;4592961;19;20452;-20
2023/05/02 12:52:56;;;;;;;4.82;3.45;;;18.00;97.30;;;;;;4593690;19;20018;-21
2023/05/02 12:54:27;;;;;;;18.33;8.68;;;18.00;99.30;;;;;;4593174;19;20010;-20
2023/05/02 12:56:02;;;;;;;19.15;10.02;;;18.30;99.90;;;;;;4593366;19;20015;-20
2023/05/02 12:57:33;;;;;;;19.52;9.43;;;18.50;99.90;;;;;;4593457;19;20011;-20
2023/05/02 12:59:06;;;;;;;20.10;9.30;;;18.70;99.90;;;;;;4592799;19;20352;-20
2023/05/02 13:00:40;;;;;;;17.27;7.80;;;18.80;99.90;;;;;;4593731;19;20014;-20
2023/05/02 13:02:13;;;;;;;15.75;7.50;;;18.80;99.90;;;;;;4593207;19;20464;-20
2023/05/02 13:03:44;;;;;;;17.27;8.25;;;18.80;99.90;;;;;;4593511;19;20014;-20
2023/05/02 13:05:16;;;;;;;13.23;6.32;;;18.80;99.90;;;;;;4592647;19;20472;-20
2023/05/02 13:06:47;;;;;;;20.63;8.93;;;18.80;99.90;;;;;;4592710;19;20006;-20
2023/05/02 13:08:21;;;;;;;13.00;7.40;;;18.90;99.90;;;;;;4592915;19;20048;-20
2023/05/02 13:09:53;;;;;;;20.48;9.27;;;19.00;99.90;;;;;;4593040;19;20038;-19
2023/05/02 13:11:24;;;;;;;18.10;10.15;;;19.10;99.90;;;;;;4593716;19;20003;-20
2023/05/02 13:12:55;;;;;;;21.42;10.48;;;19.20;99.90;;;;;;4592718;19;20021;-19
2023/05/02 13:14:26;;;;;;;22.63;9.80;;;19.30;99.90;;;;;;4591884;19;20003;-20
2023/05/02 13:15:57;;;;;;;20.55;9.75;;;19.40;99.90;;;;;;4592620;19;20021;-20
2023/05/02 13:17:29;;;;;;;22.80;10.15;;;19.40;99.90;;;;;;4592733;19;20021;-20
2023/05/02 13:19:01;;;;;;;19.23;9.55;;;19.50;99.90;;;;;;4593180;19;20021;-21
2023/05/02 13:20:33;;;;;;;20.17;10.55;;;19.50;99.90;;;;;;4592604;19;20042;-20
2023/05/02 13:22:04;;;;;;;;;;;19.60;99.90;;;;;;4592978;19;20003;-20
2023/05/02 13:23:38;;;;;;;17.80;7.95;;;19.60;99.90;;;;;;4592283;19;19918;-20
2023/05/02 13:25:09;;;;;;;21.85;8.95;;;19.60;99.90;;;;;;4590816;19;20031;-20
2023/05/02 13:26:42;;;;;;;21.63;8.65;;;19.70;99.90;;;;;;4589949;19;20010;-20
2023/05/02 13:28:13;;;;;;;15.40;7.40;;;19.70;99.90;;;;;;4591522;19;20015;-19
2023/05/02 13:29:45;;;;;;;19.33;7.63;;;19.70;99.90;;;;;;4591338;19;20014;-21
2023/05/02 13:31:16;;;;;;;12.15;6.32;;;19.70;99.90;;;;;;4590403;19;20018;-20
2023/05/02 13:32:48;;;;;;;13.90;6.30;;;19.70;99.90;;;;;;4590706;19;20554;-20
2023/05/02 13:34:19;;;;;;;15.35;6.38;;;19.70;99.90;;;;;;4590654;19;20007;-19
2023/05/02 13:35:51;;;;;;;14.68;6.45;;;19.70;99.90;;;;;;4593018;19;20373;-19
2023/05/02 13:37:22;;;;;;;10.68;5.60;;;19.70;99.90;;;;;;4592737;19;20019;-20
2023/05/02 13:38:53;;;;;;;14.23;6.90;;;19.70;99.90;;;;;;4592094;19;20053;-20
2023/05/02 13:40:25;;;;;;;11.18;5.28;;;19.70;99.90;;;;;;4592125;19;20014;-19
2023/05/02 13:41:57;;;;;;;9.98;5.85;;;19.70;99.90;;;;;;4591485;19;20070;-20
2023/05/02 13:43:28;;;;;;;10.27;5.45;;;19.70;99.90;;;;;;4589660;19;20348;-20
2023/05/02 13:45:01;;;;;;;9.95;5.53;;;19.70;99.90;;;;;;4590539;19;20011;-19
2023/05/02 13:46:36;;;;;;;7.53;4.80;;;19.70;99.90;;;;;;4590477;19;20010;-20
2023/05/02 13:48:07;;;;;;;7.65;4.25;;;19.70;99.90;;;;;;4589139;19;20010;-21
2023/05/02 13:49:38;;;;;;;;;;;19.70;99.90;;;;;;4588936;19;20512;-19
2023/05/02 13:51:09;;;;;;;8.77;4.97;;;19.60;99.90;;;;;;4591758;19;19941;-20
2023/05/02 13:52:40;;;;;;;7.25;4.32;;;19.60;99.90;;;;;;4591863;19;20365;-20
2023/05/02 13:54:12;;;;;;;8.65;4.50;;;19.60;99.90;;;;;;4592212;19;20054;-20
2023/05/02 13:55:43;;;;;;;10.77;4.63;;;19.70;99.90;;;;;;4592386;19;20497;-20
2023/05/02 13:57:14;;;;;;;9.07;5.00;;;19.60;99.90;;;;;;4591494;19;20011;-20
2023/05/02 13:58:48;;;;;;;6.55;3.80;;;19.70;99.90;;;;;;4590973;19;20015;-19
2023/05/02 14:00:19;;;;;;;6.07;4.03;;;19.70;99.90;;;;;;4591978;19;20037;-19
2023/05/02 14:01:51;;;;;;;6.32;3.60;;;19.70;99.90;;;;;;4592751;19;20555;-19
2023/05/02 14:03:23;;;;;;;6.82;3.92;;;19.70;99.90;;;;;;4592406;19;20370;-20
2023/05/02 14:04:55;;;;;;;6.13;3.30;;;19.70;99.90;;;;;;4590394;19;20046;-20
2023/05/02 14:06:26;;;;;;;6.93;4.05;;;19.70;99.90;;;;;;4591097;19;20011;-20
2023/05/02 14:07:57;;;;;;;8.35;4.05;;;19.70;99.90;;;;;;4592027;19;20011;-20
2023/05/02 14:09:28;;;;;;;5.40;3.63;;;19.70;99.90;;;;;;4591740;19;20338;-19
2023/05/02 14:11:00;;;;;;;;;;;19.70;99.90;;;;;;4591488;19;20018;-20
2023/05/02 14:12:32;;;;;;;8.65;3.78;;;19.70;99.90;;;;;;4592276;19;20300;-20
2023/05/02 14:14:03;;;;;;;10.02;4.22;;;19.70;99.90;;;;;;4592229;19;20357;-20